Time;durP1;ratioP1;P1;durP2;ratioP2;P2;SDS_P1;SDS_P2;PMS_P1;PMS_P2;Temp;Humidity;BMP_temperature;BMP_pressure;BME280_temperature;BME280_humidity;BME280_pressure;Samples;Min_cycle;Max_cycle;Signal;HPM_P1;HPM_P2
2022/06/10 00:04:54;;;;;;;12.27;7.38;;;;;;;;;;10365397;28;20053;-75
2022/06/10 00:09:56;;;;;;;15.00;7.93;;;;;;;;;;10366165;28;20118;-75
2022/06/10 00:15:00;;;;;;;14.38;8.25;;;;;;;;;;10366056;28;20054;-75
2022/06/10 00:20:04;;;;;;;24.90;11.02;;;;;;;;;;10363179;28;20070;-75
2022/06/10 00:25:08;;;;;;;25.20;12.00;;;;;;;;;;10365980;28;20046;-74
2022/06/10 00:30:13;;;;;;;32.78;15.43;;;;;;;;;;10365976;28;20046;-75
2022/06/10 00:35:16;;;;;;;42.67;18.48;;;;;;;;;;10370119;28;20277;-74
2022/06/10 00:40:22;;;;;;;43.10;19.55;;;;;;;;;;10373533;28;20046;-75
2022/06/10 00:46:04;;;;;;;42.65;19.17;;;;;;;;;;10372293;28;20053;-75
2022/06/10 00:51:18;;;;;;;45.20;19.75;;;;;;;;;;10342076;28;20062;-75
2022/06/10 00:56:24;;;;;;;38.85;18.55;;;;;;;;;;10373261;28;20229;-76
2022/06/10 01:01:28;;;;;;;50.38;21.40;;;;;;;;;;10360889;28;20050;-75
2022/06/10 01:06:33;;;;;;;44.78;22.60;;;;;;;;;;10360051;28;20227;-75
2022/06/10 01:11:54;;;;;;;50.63;21.80;;;;;;;;;;10371731;28;20051;-74
2022/06/10 01:17:10;;;;;;;45.30;20.98;;;;;;;;;;10371462;28;20050;-74
2022/06/10 01:22:40;;;;;;;36.15;18.27;;;;;;;;;;10364507;28;20081;-74
2022/06/10 01:27:58;;;;;;;37.72;18.52;;;;;;;;;;10331898;28;20043;-74
2022/06/10 01:33:18;;;;;;;55.67;24.67;;;;;;;;;;10342947;28;20061;-74
2022/06/10 01:38:34;;;;;;;36.10;15.65;;;;;;;;;;10357976;28;20042;-74
2022/06/10 01:43:42;;;;;;;29.98;16.83;;;;;;;;;;10370826;28;20053;-74
2022/06/10 01:48:51;;;;;;;33.60;18.77;;;;;;;;;;10370392;28;20042;-74
2022/06/10 01:53:59;;;;;;;32.50;18.83;;;;;;;;;;10370683;28;20061;-74
2022/06/10 01:59:08;;;;;;;20.10;12.60;;;;;;;;;;10370766;28;20046;-75
2022/06/10 02:04:18;;;;;;;22.13;13.07;;;;;;;;;;10370497;28;20042;-74
2022/06/10 02:09:25;;;;;;;16.83;10.60;;;;;;;;;;10369712;28;20042;-75
2022/06/10 02:14:32;;;;;;;19.65;11.68;;;;;;;;;;10369809;28;20257;-74
2022/06/10 02:19:40;;;;;;;16.10;10.50;;;;;;;;;;10368461;28;20049;-74
2022/06/10 02:24:46;;;;;;;21.70;12.80;;;;;;;;;;10369664;28;20050;-74
2022/06/10 02:29:57;;;;;;;20.55;12.98;;;;;;;;;;10369864;28;20065;-74
2022/06/10 02:35:01;;;;;;;24.80;15.35;;;;;;;;;;10367677;28;20061;-76
2022/06/10 02:40:13;;;;;;;32.45;19.70;;;;;;;;;;10369085;28;20241;-75
2022/06/10 02:45:23;;;;;;;32.67;20.63;;;;;;;;;;10354837;28;20054;-74
2022/06/10 02:50:27;;;;;;;38.55;22.45;;;;;;;;;;10353639;28;20065;-75
2022/06/10 02:55:30;;;;;;;41.13;23.30;;;;;;;;;;10368298;28;20067;-75
2022/06/10 03:06:18;;;;;;;68.75;35.97;;;;;;;;;;10367560;28;20084;-75
2022/06/10 03:11:31;;;;;;;60.15;31.42;;;;;;;;;;10366873;28;20050;-75
2022/06/10 03:16:49;;;;;;;53.90;31.15;;;;;;;;;;10367177;28;20049;-74
2022/06/10 03:22:03;;;;;;;53.90;30.05;;;;;;;;;;10359519;28;20066;-74
2022/06/10 03:27:14;;;;;;;48.90;29.30;;;;;;;;;;10367480;28;20269;-74
2022/06/10 03:32:24;;;;;;;39.03;24.65;;;;;;;;;;10365592;28;20057;-75
2022/06/10 03:37:29;;;;;;;50.33;28.83;;;;;;;;;;10361036;28;20046;-75
2022/06/10 03:42:31;;;;;;;;;;;;;;;;;;10352598;28;20046;-75
2022/06/10 03:47:34;;;;;;;43.22;23.42;;;;;;;;;;10363788;28;20112;-75
2022/06/10 03:52:40;;;;;;;35.05;21.88;;;;;;;;;;10367076;28;20061;-75
2022/06/10 03:57:43;;;;;;;37.35;22.05;;;;;;;;;;10364025;28;20050;-74
2022/06/10 04:02:46;;;;;;;27.98;17.90;;;;;;;;;;10367625;28;20042;-74
2022/06/10 04:07:50;;;;;;;26.55;16.67;;;;;;;;;;10369224;28;20049;-74
2022/06/10 04:12:53;;;;;;;22.63;13.68;;;;;;;;;;10364439;28;20042;-75
2022/06/10 04:17:57;;;;;;;27.73;14.20;;;;;;;;;;10379311;28;20058;-74
2022/06/10 04:23:02;;;;;;;22.73;12.63;;;;;;;;;;10369260;28;20344;-75
2022/06/10 04:28:07;;;;;;;24.60;14.32;;;;;;;;;;10379287;28;20236;-75
2022/06/10 04:33:10;;;;;;;24.30;14.45;;;;;;;;;;10379340;28;20092;-75
2022/06/10 04:38:16;;;;;;;26.00;14.18;;;;;;;;;;10376355;28;20057;-72
2022/06/10 04:43:19;;;;;;;24.63;15.00;;;;;;;;;;10379113;28;20046;-71
2022/06/10 04:48:21;;;;;;;24.70;12.57;;;;;;;;;;10372879;28;20061;-69
2022/06/10 04:53:25;;;;;;;20.20;11.25;;;;;;;;;;10377725;28;20057;-73
2022/06/10 04:58:27;;;;;;;18.98;10.25;;;;;;;;;;10374281;28;20064;-72
2022/06/10 05:03:30;;;;;;;17.48;9.70;;;;;;;;;;10341277;28;20345;-72
2022/06/10 05:08:34;;;;;;;18.02;10.13;;;;;;;;;;10374599;28;20049;-72
2022/06/10 05:13:37;;;;;;;17.52;9.05;;;;;;;;;;10372656;28;20057;-72
2022/06/10 05:18:39;;;;;;;19.63;11.13;;;;;;;;;;10374893;28;20321;-72
2022/06/10 05:23:45;;;;;;;16.20;8.85;;;;;;;;;;10363591;28;20065;-72
2022/06/10 05:28:50;;;;;;;16.88;9.85;;;;;;;;;;10397813;28;20050;-72
2022/06/10 05:39:14;;;;;;;17.75;10.50;;;;;;;;;;10372511;28;20249;-72
2022/06/10 05:44:19;;;;;;;16.95;9.57;;;;;;;;;;10370560;28;20054;-72
2022/06/10 05:49:22;;;;;;;15.13;9.52;;;;;;;;;;10367711;28;20350;-70
2022/06/10 05:54:26;;;;;;;12.65;8.32;;;;;;;;;;10364772;28;20114;-72
2022/06/10 05:59:29;;;;;;;;;;;;;;;;;;10367291;28;20225;-75
2022/06/10 06:04:32;;;;;;;19.25;10.60;;;;;;;;;;10398164;28;19917;-74
2022/06/10 06:09:36;;;;;;;17.15;9.90;;;;;;;;;;10354625;28;20341;-74
2022/06/10 06:14:38;;;;;;;;;;;;;;;;;;10354784;28;20289;-74
2022/06/10 06:19:42;;;;;;;17.65;10.32;;;;;;;;;;10365394;28;19934;-73
2022/06/10 06:24:48;;;;;;;14.68;9.13;;;;;;;;;;10354310;28;20096;-74
2022/06/10 06:29:51;;;;;;;16.45;9.10;;;;;;;;;;10363885;28;20050;-75
2022/06/10 06:34:54;;;;;;;14.70;8.13;;;;;;;;;;10367323;28;20042;-73
2022/06/10 06:39:58;;;;;;;11.60;7.82;;;;;;;;;;10359956;28;20061;-74
2022/06/10 06:45:02;;;;;;;13.80;8.05;;;;;;;;;;10353784;28;20042;-71
2022/06/10 06:50:06;;;;;;;15.15;7.80;;;;;;;;;;10363234;28;20046;-74
2022/06/10 06:55:11;;;;;;;12.18;8.02;;;;;;;;;;10363813;28;20050;-73
2022/06/10 07:00:16;;;;;;;12.18;7.80;;;;;;;;;;10364301;28;20039;-73
2022/06/10 07:05:19;;;;;;;13.32;7.53;;;;;;;;;;10365523;28;20325;-74
2022/06/10 07:10:24;;;;;;;10.93;6.78;;;;;;;;;;10365075;28;20038;-74
2022/06/10 07:15:27;;;;;;;11.10;6.55;;;;;;;;;;10364972;28;20065;-74
2022/06/10 07:20:33;;;;;;;13.35;8.05;;;;;;;;;;10361050;28;20241;-72
2022/06/10 07:25:37;;;;;;;8.68;6.20;;;;;;;;;;10362774;28;20257;-72
2022/06/10 07:30:41;;;;;;;8.20;5.50;;;;;;;;;;10362582;28;20046;-74
2022/06/10 07:35:44;;;;;;;7.97;5.28;;;;;;;;;;10363963;28;20042;-74
2022/06/10 07:46:10;;;;;;;9.75;5.20;;;;;;;;;;10358384;28;20057;-71
2022/06/10 07:51:12;;;;;;;7.65;5.38;;;;;;;;;;10364148;28;20065;-72
2022/06/10 07:56:20;;;;;;;12.60;4.60;;;;;;;;;;10361409;28;20045;-72
2022/06/10 08:01:23;;;;;;;6.97;4.55;;;;;;;;;;10362630;28;20241;-74
2022/06/10 08:06:29;;;;;;;8.25;4.40;;;;;;;;;;10364912;28;20229;-71
2022/06/10 08:11:35;;;;;;;5.80;4.53;;;;;;;;;;10363864;28;20042;-74
2022/06/10 08:16:38;;;;;;;9.23;5.15;;;;;;;;;;10363100;28;20050;-72
2022/06/10 08:27:11;;;;;;;7.18;4.65;;;;;;;;;;10261519;28;20066;-72
2022/06/10 08:32:13;;;;;;;9.20;5.10;;;;;;;;;;10275421;28;20230;-70
2022/06/10 08:37:17;;;;;;;7.75;5.57;;;;;;;;;;10264036;29;20059;-71
2022/06/10 08:42:36;;;;;;;7.97;4.35;;;;;;;;;;10264628;29;20063;-73
2022/06/10 08:47:52;;;;;;;5.40;4.18;;;;;;;;;;10253206;28;20369;-72
2022/06/10 08:53:16;;;;;;;8.05;4.38;;;;;;;;;;10272576;28;20098;-70
2022/06/10 08:58:26;;;;;;;8.73;4.43;;;;;;;;;;10281450;28;20058;-70
2022/06/10 09:03:35;;;;;;;6.72;4.50;;;;;;;;;;10348990;28;20069;-69
2022/06/10 09:08:42;;;;;;;8.50;4.88;;;;;;;;;;10370892;28;20042;-69
2022/06/10 09:13:51;;;;;;;7.60;4.90;;;;;;;;;;10369357;28;20034;-69
2022/06/10 09:19:04;;;;;;;9.02;4.30;;;;;;;;;;10368765;28;20038;-69
2022/06/10 09:24:13;;;;;;;9.32;3.97;;;;;;;;;;10348182;28;20054;-72
2022/06/10 09:29:17;;;;;;;4.97;3.85;;;;;;;;;;10362959;28;20084;-70
2022/06/10 09:34:30;;;;;;;6.88;3.80;;;;;;;;;;10348695;28;20042;-70
2022/06/10 09:45:12;;;;;;;5.45;3.22;;;;;;;;;;10368031;28;20049;-71
2022/06/10 09:50:22;;;;;;;7.40;3.72;;;;;;;;;;10369463;28;20042;-70
2022/06/10 09:55:28;;;;;;;;;;;;;;;;;;10363313;28;20053;-68
2022/06/10 10:00:37;;;;;;;5.93;3.55;;;;;;;;;;10354134;28;19918;-69
2022/06/10 10:05:51;;;;;;;6.03;3.47;;;;;;;;;;10355123;28;20050;-70
2022/06/10 10:10:57;;;;;;;4.28;2.97;;;;;;;;;;10368038;28;20046;-69
2022/06/10 10:16:09;;;;;;;3.90;3.15;;;;;;;;;;10367377;28;20042;-75
2022/06/10 10:21:14;;;;;;;4.32;2.90;;;;;;;;;;10362119;28;20064;-71
2022/06/10 10:26:21;;;;;;;3.88;2.78;;;;;;;;;;10367955;28;20057;-71
2022/06/10 10:31:27;;;;;;;8.45;3.13;;;;;;;;;;10367450;28;20038;-72
2022/06/10 10:36:45;;;;;;;4.28;2.55;;;;;;;;;;10367536;28;20051;-73
2022/06/10 10:41:50;;;;;;;6.53;3.00;;;;;;;;;;10360777;28;20050;-72
2022/06/10 10:47:02;;;;;;;5.18;2.67;;;;;;;;;;10368831;28;20093;-74
2022/06/10 10:52:09;;;;;;;8.68;2.22;;;;;;;;;;10367641;28;20046;-70
2022/06/10 10:57:21;;;;;;;2.85;2.17;;;;;;;;;;10364050;28;20050;-73
2022/06/10 11:02:38;;;;;;;4.68;2.40;;;;;;;;;;10365791;28;20038;-73
2022/06/10 11:07:42;;;;;;;2.58;1.40;;;;;;;;;;10359197;28;20114;-73
2022/06/10 11:12:44;;;;;;;2.88;2.50;;;;;;;;;;10363768;28;20050;-71
2022/06/10 11:17:50;;;;;;;;;;;;;;;;;;10365130;28;20042;-72
2022/06/10 11:23:11;;;;;;;2.95;2.50;;;;;;;;;;10354814;28;20200;-73
2022/06/10 11:28:23;;;;;;;5.93;2.72;;;;;;;;;;10365814;28;20245;-70
2022/06/10 11:33:32;;;;;;;4.95;2.40;;;;;;;;;;10365790;28;20038;-73
2022/06/10 11:38:38;;;;;;;4.18;2.15;;;;;;;;;;10365694;28;20038;-71
2022/06/10 11:43:46;;;;;;;2.88;1.95;;;;;;;;;;10365416;28;20042;-73
2022/06/10 11:48:54;;;;;;;3.80;3.22;;;;;;;;;;10358621;28;20050;-72
2022/06/10 11:54:01;;;;;;;4.53;1.70;;;;;;;;;;10365387;28;20050;-70
2022/06/10 12:04:31;;;;;;;;;;;;;;;;;;10365281;28;20042;-70
2022/06/10 12:09:37;;;;;;;5.65;2.53;;;;;;;;;;10362663;28;19918;-72
2022/06/10 12:14:45;;;;;;;4.60;2.85;;;;;;;;;;10363157;28;20038;-71
2022/06/10 12:19:53;;;;;;;4.10;2.05;;;;;;;;;;10361904;28;20046;-71
2022/06/10 12:24:56;;;;;;;7.38;1.95;;;;;;;;;;10349928;28;20110;-72
2022/06/10 12:30:03;;;;;;;2.50;1.77;;;;;;;;;;10368908;28;20268;-73
2022/06/10 12:35:17;;;;;;;4.32;1.70;;;;;;;;;;10371984;28;20041;-72
2022/06/10 12:40:27;;;;;;;4.55;2.33;;;;;;;;;;10359509;28;20045;-72
2022/06/10 12:45:35;;;;;;;7.25;2.00;;;;;;;;;;10366731;28;20042;-72
2022/06/10 12:50:50;;;;;;;2.67;1.92;;;;;;;;;;10369795;28;20084;-71
2022/06/10 12:55:55;;;;;;;5.57;1.85;;;;;;;;;;10369562;28;20333;-76
2022/06/10 13:01:12;;;;;;;3.58;2.28;;;;;;;;;;10371109;28;20245;-73
2022/06/10 13:06:32;;;;;;;9.93;2.30;;;;;;;;;;10371655;28;20241;-72
2022/06/10 13:11:39;;;;;;;6.20;1.92;;;;;;;;;;10385486;28;20042;-73
2022/06/10 13:16:43;;;;;;;4.60;2.88;;;;;;;;;;10374021;28;20042;-73
2022/06/10 13:21:48;;;;;;;2.85;1.50;;;;;;;;;;10362626;28;20045;-70
2022/06/10 13:26:51;;;;;;;3.47;1.80;;;;;;;;;;10370973;28;20050;-70
2022/06/10 13:31:56;;;;;;;3.53;1.60;;;;;;;;;;10377931;28;20066;-73
2022/06/10 13:37:10;;;;;;;5.55;1.83;;;;;;;;;;10383904;28;20233;-73
2022/06/10 13:42:21;;;;;;;2.05;1.65;;;;;;;;;;10371406;28;20422;-72
2022/06/10 13:47:26;;;;;;;3.28;2.00;;;;;;;;;;10355152;28;20125;-73
2022/06/10 13:52:33;;;;;;;2.17;1.98;;;;;;;;;;10370622;28;20045;-73
2022/06/10 13:57:36;;;;;;;7.47;1.80;;;;;;;;;;10349235;28;20065;-72
2022/06/10 14:02:42;;;;;;;4.10;2.10;;;;;;;;;;10355595;28;20325;-73
2022/06/10 14:07:48;;;;;;;2.35;1.83;;;;;;;;;;10369021;28;20042;-73
2022/06/10 14:12:56;;;;;;;3.50;1.85;;;;;;;;;;10366193;28;20058;-73
2022/06/10 14:18:04;;;;;;;3.92;1.85;;;;;;;;;;10360051;28;20042;-73
2022/06/10 14:23:23;;;;;;;5.63;1.70;;;;;;;;;;10357607;28;20067;-72
2022/06/10 14:28:26;;;;;;;3.10;1.90;;;;;;;;;;10349756;28;20057;-74
2022/06/10 14:33:31;;;;;;;3.83;1.47;;;;;;;;;;10361786;28;20046;-74
2022/06/10 14:38:35;;;;;;;4.32;1.88;;;;;;;;;;10367301;28;20388;-73
2022/06/10 14:43:55;;;;;;;1.95;1.60;;;;;;;;;;10355018;28;20043;-73
2022/06/10 14:48:59;;;;;;;3.15;1.77;;;;;;;;;;10368164;28;20061;-72
2022/06/10 14:54:15;;;;;;;3.05;1.73;;;;;;;;;;10352253;28;21746;-74
2022/06/10 14:59:23;;;;;;;1.92;1.70;;;;;;;;;;10354041;28;20234;-73
2022/06/10 15:04:26;;;;;;;8.05;2.33;;;;;;;;;;10363760;28;20038;-74
2022/06/10 15:09:33;;;;;;;2.20;1.70;;;;;;;;;;10364117;28;20042;-74
2022/06/10 15:14:36;;;;;;;3.35;1.67;;;;;;;;;;10366893;28;20053;-72
2022/06/10 15:19:42;;;;;;;3.83;2.28;;;;;;;;;;10371076;28;20052;-72
2022/06/10 15:24:46;;;;;;;3.10;1.40;;;;;;;;;;10361751;28;20050;-73
2022/06/10 15:29:49;;;;;;;7.57;2.10;;;;;;;;;;10365440;28;20050;-72
2022/06/10 15:45:36;;;;;;;10.32;1.80;;;;;;;;;;10341560;28;20058;-70
2022/06/10 15:50:44;;;;;;;2.13;1.55;;;;;;;;;;10365197;28;20050;-72
2022/06/10 16:01:10;;;;;;;2.53;1.50;;;;;;;;;;10358401;28;20097;-72
2022/06/10 16:06:13;;;;;;;2.35;1.95;;;;;;;;;;10364679;28;20062;-70
2022/06/10 16:11:19;;;;;;;2.50;1.60;;;;;;;;;;10354841;28;20293;-74
2022/06/10 16:16:24;;;;;;;2.38;1.33;;;;;;;;;;10359960;28;20065;-71
2022/06/10 16:21:28;;;;;;;1.58;1.25;;;;;;;;;;10358111;28;20054;-73
2022/06/10 16:26:35;;;;;;;1.50;1.13;;;;;;;;;;10364892;28;20049;-75
2022/06/10 16:31:41;;;;;;;1.75;1.30;;;;;;;;;;10363473;28;20058;-71
2022/06/10 16:36:44;;;;;;;3.60;1.52;;;;;;;;;;10349398;28;20050;-68
2022/06/10 16:41:50;;;;;;;2.85;1.27;;;;;;;;;;10360623;28;20049;-69
2022/06/10 16:46:57;;;;;;;1.75;0.95;;;;;;;;;;10362752;28;20050;-72
2022/06/10 16:52:01;;;;;;;3.78;1.45;;;;;;;;;;10364993;28;20325;-68
2022/06/10 16:57:07;;;;;;;1.30;1.17;;;;;;;;;;10346956;28;20046;-70
2022/06/10 17:02:20;;;;;;;3.92;1.50;;;;;;;;;;10364074;28;20045;-71
2022/06/10 17:07:26;;;;;;;1.50;1.23;;;;;;;;;;10359063;28;20041;-69
2022/06/10 17:12:32;;;;;;;1.10;1.10;;;;;;;;;;10364572;28;20038;-70
2022/06/10 17:17:35;;;;;;;1.63;1.13;;;;;;;;;;10366805;28;20146;-69
2022/06/10 17:22:38;;;;;;;2.63;1.17;;;;;;;;;;10358915;28;20070;-69
2022/06/10 17:27:42;;;;;;;3.37;1.40;;;;;;;;;;10369001;28;20109;-69
2022/06/10 17:32:45;;;;;;;1.40;1.30;;;;;;;;;;10368589;28;20050;-70
2022/06/10 17:37:48;;;;;;;2.78;1.88;;;;;;;;;;10369609;28;20053;-70
2022/06/10 17:42:53;;;;;;;1.23;1.13;;;;;;;;;;10363395;28;20330;-69
2022/06/10 17:47:55;;;;;;;2.75;1.60;;;;;;;;;;10362441;28;20046;-68
2022/06/10 17:52:58;;;;;;;2.97;1.50;;;;;;;;;;10365731;28;20356;-68
2022/06/10 17:58:03;;;;;;;1.93;1.50;;;;;;;;;;10367727;28;20050;-69
2022/06/10 18:03:08;;;;;;;4.80;1.80;;;;;;;;;;10367028;28;20049;-69
2022/06/10 18:08:13;;;;;;;1.27;1.10;;;;;;;;;;10367835;28;20042;-70
2022/06/10 18:18:42;;;;;;;;;;;;;;;;;;10369602;28;20054;-70
2022/06/10 18:23:46;;;;;;;1.13;1.00;;;;;;;;;;10353816;28;19926;-69
2022/06/10 18:28:50;;;;;;;;;;;;;;;;;;10353928;28;20113;-68
2022/06/10 18:33:52;;;;;;;1.70;1.50;;;;;;;;;;10365337;28;19924;-69
2022/06/10 18:38:56;;;;;;;2.38;1.60;;;;;;;;;;10354214;28;20325;-70
2022/06/10 18:44:00;;;;;;;1.75;1.65;;;;;;;;;;10366447;28;20057;-68
2022/06/10 18:49:09;;;;;;;2.97;2.20;;;;;;;;;;10364852;28;20061;-70
2022/06/10 18:54:18;;;;;;;1.58;1.48;;;;;;;;;;10363465;28;20348;-70
2022/06/10 18:59:24;;;;;;;2.10;1.55;;;;;;;;;;10366179;28;20062;-69
2022/06/10 19:04:30;;;;;;;6.65;1.77;;;;;;;;;;10363882;28;20340;-69
2022/06/10 19:09:35;;;;;;;2.20;2.00;;;;;;;;;;10362901;28;20093;-70
2022/06/10 19:14:41;;;;;;;2.42;1.80;;;;;;;;;;10365868;28;20049;-73
2022/06/10 19:19:46;;;;;;;5.05;1.90;;;;;;;;;;10350932;28;20072;-73
2022/06/10 19:24:50;;;;;;;4.55;2.58;;;;;;;;;;10364142;28;20053;-71
2022/06/10 19:29:56;;;;;;;3.55;2.40;;;;;;;;;;10366592;28;20326;-70
2022/06/10 19:35:02;;;;;;;8.27;3.58;;;;;;;;;;10356895;28;20237;-72
2022/06/10 19:40:09;;;;;;;9.30;2.38;;;;;;;;;;10363473;28;20038;-71
2022/06/10 19:45:18;;;;;;;5.05;2.65;;;;;;;;;;10367958;28;20237;-72
2022/06/10 19:50:23;;;;;;;3.47;2.40;;;;;;;;;;10366280;28;20046;-70
2022/06/10 19:55:29;;;;;;;3.28;2.65;;;;;;;;;;10364394;28;20054;-69
2022/06/10 20:00:34;;;;;;;7.88;3.22;;;;;;;;;;10363846;28;20046;-71
2022/06/10 20:05:37;;;;;;;11.85;3.40;;;;;;;;;;10364908;28;20061;-69
2022/06/10 20:10:41;;;;;;;5.63;3.10;;;;;;;;;;10360358;28;20046;-69
2022/06/10 20:15:49;;;;;;;9.77;3.55;;;;;;;;;;10364154;28;20042;-69
2022/06/10 20:20:53;;;;;;;4.82;2.92;;;;;;;;;;10357616;28;20069;-69
2022/06/10 20:25:55;;;;;;;5.25;3.67;;;;;;;;;;10363089;28;20061;-70
2022/06/10 20:31:01;;;;;;;5.93;4.55;;;;;;;;;;10349699;28;20051;-70
2022/06/10 20:36:07;;;;;;;12.95;7.40;;;;;;;;;;10364443;28;20043;-71
2022/06/10 20:41:12;;;;;;;12.48;7.55;;;;;;;;;;10363729;28;20093;-69
2022/06/10 20:46:25;;;;;;;7.25;4.70;;;;;;;;;;10350448;28;20038;-69
2022/06/10 20:51:32;;;;;;;9.60;4.70;;;;;;;;;;10360149;28;20045;-69
2022/06/10 20:56:36;;;;;;;7.10;4.88;;;;;;;;;;10369817;28;20077;-69
2022/06/10 21:01:44;;;;;;;10.63;5.20;;;;;;;;;;10370895;28;20049;-68
2022/06/10 21:12:07;;;;;;;7.00;4.53;;;;;;;;;;10369100;28;20053;-69
2022/06/10 21:17:20;;;;;;;7.20;4.28;;;;;;;;;;10368068;28;20109;-70
2022/06/10 21:22:24;;;;;;;6.60;4.22;;;;;;;;;;10361538;28;20066;-68
2022/06/10 21:27:27;;;;;;;5.18;3.80;;;;;;;;;;10363627;28;20097;-70
2022/06/10 21:32:31;;;;;;;6.13;4.13;;;;;;;;;;10368286;28;20053;-69
2022/06/10 21:37:34;;;;;;;8.38;5.63;;;;;;;;;;10371344;28;20068;-69
2022/06/10 21:48:02;;;;;;;18.75;7.28;;;;;;;;;;10318190;28;20043;-70
2022/06/10 21:53:14;;;;;;;9.73;6.35;;;;;;;;;;10369331;28;20038;-69
2022/06/10 21:58:19;;;;;;;14.23;5.68;;;;;;;;;;10371228;28;20061;-70
2022/06/10 22:03:29;;;;;;;10.30;5.25;;;;;;;;;;10370244;28;20042;-70
2022/06/10 22:08:32;;;;;;;6.95;4.70;;;;;;;;;;10370529;28;20210;-70
2022/06/10 22:13:35;;;;;;;11.73;5.05;;;;;;;;;;10357398;28;20233;-69
2022/06/10 22:18:39;;;;;;;11.30;4.93;;;;;;;;;;10370706;28;20057;-70
2022/06/10 22:23:43;;;;;;;9.00;4.85;;;;;;;;;;10358016;28;20081;-69
2022/06/10 22:28:45;;;;;;;4.83;4.23;;;;;;;;;;10370841;28;20122;-69
2022/06/10 22:33:51;;;;;;;7.15;4.65;;;;;;;;;;10370116;28;20049;-69
2022/06/10 22:38:55;;;;;;;7.35;4.43;;;;;;;;;;10356403;28;20042;-70
2022/06/10 22:43:58;;;;;;;5.35;3.38;;;;;;;;;;10370018;28;20042;-69
2022/06/10 22:49:04;;;;;;;8.90;3.70;;;;;;;;;;10369948;28;20335;-69
2022/06/10 22:54:06;;;;;;;5.63;3.85;;;;;;;;;;10369345;28;20057;-69
2022/06/10 22:59:09;;;;;;;11.95;4.38;;;;;;;;;;10364581;28;20069;-68
2022/06/10 23:14:58;;;;;;;10.80;5.43;;;;;;;;;;10368114;28;20042;-68
2022/06/10 23:20:13;;;;;;;9.68;5.05;;;;;;;;;;10354096;28;20061;-68
2022/06/10 23:25:18;;;;;;;11.65;5.15;;;;;;;;;;10368283;28;20049;-68
2022/06/10 23:30:22;;;;;;;12.30;6.00;;;;;;;;;;10367718;28;20256;-68
2022/06/10 23:35:29;;;;;;;8.80;5.30;;;;;;;;;;10348679;28;20133;-68
2022/06/10 23:40:34;;;;;;;10.60;5.70;;;;;;;;;;10358302;28;20085;-68
2022/06/10 23:50:59;;;;;;;13.32;6.45;;;;;;;;;;10367035;28;20050;-68
2022/06/10 23:56:17;;;;;;;18.00;7.20;;;;;;;;;;10348108;28;20055;-68
